X  Close Metar Aviation Weather Data     KGPT Gulfport Biloxi International Airport
Temperature
82°F Temperature
66°F Dewpoint
58% Humidity



Wind
9 MPH
14 KM/H
4 M/S
8 KTS



30°
NNE
Current Conditions

Clear Clear
Pressure 1016.62 (hPa) - 30.02 (inHg)
Visibility 10 (mile) - 16.1 (km)
Airport
Airport-code KGPT

Location: Gulfport Biloxi International Airport
Distance: 14 (mi)

Metar:
KGPT 231453Z 03008KT 360V070 10SM CLR 28/19 A3002 RMK AO2 SLP165 T02780194 51014

Time: 23-09-2022 09:53 CDT